Time;durP1;ratioP1;P1;durP2;ratioP2;P2;SDS_P1;SDS_P2;PMS_P1;PMS_P2;Temp;Humidity;BMP_temperature;BMP_pressure;BME280_temperature;BME280_humidity;BME280_pressure;Samples;Min_cycle;Max_cycle;Signal;HPM_P1;HPM_P2
2022/06/29 00:00:43;;;;;;;2.10;2.00;;;;;;;16.14;80.21;101571.84;4958130;28;20030;-89
2022/06/29 00:03:09;;;;;;;1.92;1.83;;;;;;;16.12;79.63;101568.41;4958445;28;20022;-88
2022/06/29 00:05:34;;;;;;;1.80;1.70;;;;;;;16.10;80.82;101567.56;4958349;28;20547;-88
2022/06/29 00:08:00;;;;;;;2.10;2.00;;;;;;;16.08;81.19;101564.13;4957742;28;20029;-88
2022/06/29 00:10:26;;;;;;;1.95;1.85;;;;;;;16.05;80.59;101560.66;4957936;28;20026;-88
2022/06/29 00:12:52;;;;;;;2.10;2.00;;;;;;;16.03;81.02;101562.47;4974022;28;20113;-89
2022/06/29 00:15:18;;;;;;;1.83;1.73;;;;;;;16.01;81.07;101559.00;4958121;28;20117;-88
2022/06/29 00:17:44;;;;;;;1.88;1.77;;;;;;;16.00;80.82;101565.16;4973889;28;20110;-88
2022/06/29 00:20:12;;;;;;;2.17;2.03;;;;;;;15.97;80.52;101549.44;4989777;28;20389;-88
2022/06/29 00:22:39;;;;;;;1.90;1.83;;;;;;;15.96;80.60;101560.88;4958244;28;20034;-88
2022/06/29 00:25:05;;;;;;;1.90;1.80;;;;;;;15.95;80.68;101559.16;4957908;28;20026;-88
2022/06/29 00:27:31;;;;;;;1.77;1.67;;;;;;;15.94;80.48;101560.06;4973822;28;20019;-88
2022/06/29 00:29:56;;;;;;;2.10;2.00;;;;;;;15.92;80.19;101559.22;4973832;28;20049;-88
2022/06/29 00:32:21;;;;;;;2.28;2.13;;;;;;;15.89;80.41;101554.03;4973970;28;20046;-88
2022/06/29 00:34:47;;;;;;;2.10;2.00;;;;;;;15.87;80.09;101566.41;4957449;28;20125;-88
2022/06/29 00:37:13;;;;;;;1.92;1.83;;;;;;;15.85;79.96;101562.91;4957513;28;20499;-88
2022/06/29 00:39:38;;;;;;;2.10;2.00;;;;;;;15.83;80.49;101556.84;4957497;28;20400;-89
2022/06/29 00:42:04;;;;;;;2.30;2.20;;;;;;;15.80;80.50;101565.69;4957551;28;20022;-89
2022/06/29 00:44:30;;;;;;;1.92;1.83;;;;;;;15.77;80.65;101559.56;4957447;28;20027;-88
2022/06/29 00:46:57;;;;;;;1.65;1.58;;;;;;;15.74;80.62;101549.13;4957563;28;20027;-88
2022/06/29 00:49:25;;;;;;;2.42;2.25;;;;;;;15.71;80.81;101548.28;4973618;28;20443;-89
2022/06/29 00:52:02;;;;;;;2.47;2.28;;;;;;;15.69;80.72;101542.19;4957401;28;20027;-89
2022/06/29 00:54:32;;;;;;;1.90;1.80;;;;;;;15.69;80.85;101534.28;4956436;28;20031;-88
2022/06/29 00:57:00;;;;;;;2.17;2.08;;;;;;;15.67;81.20;101535.22;4972988;28;20165;-89
2022/06/29 00:59:26;;;;;;;2.30;2.20;;;;;;;15.65;80.37;101529.13;4957146;28;20031;-89
2022/06/29 01:01:51;;;;;;;2.28;2.13;;;;;;;15.62;81.48;101526.56;4973045;28;20407;-89
2022/06/29 01:04:17;;;;;;;2.08;1.98;;;;;;;15.60;81.07;101525.72;4957045;28;20503;-88
2022/06/29 01:06:43;;;;;;;2.75;1.90;;;;;;;15.59;80.90;101534.56;4956905;28;20551;-89
2022/06/29 01:09:09;;;;;;;2.22;2.13;;;;;;;15.58;80.55;101527.53;4973077;28;20089;-88
2022/06/29 01:11:34;;;;;;;1.77;1.67;;;;;;;15.58;80.90;101524.91;4956932;28;20027;-88
2022/06/29 01:14:00;;;;;;;2.42;2.22;;;;;;;15.55;80.86;101523.22;4956899;28;20085;-88
2022/06/29 01:16:26;;;;;;;1.80;1.70;;;;;;;15.53;81.01;101525.03;4956652;28;20555;-88
2022/06/29 01:18:52;;;;;;;2.13;2.03;;;;;;;15.50;81.23;101522.44;4989390;28;20026;-88
2022/06/29 01:21:19;;;;;;;2.08;1.98;;;;;;;15.48;81.17;101521.63;4972440;28;20028;-88
2022/06/29 01:23:44;;;;;;;2.60;2.05;;;;;;;15.48;81.04;101521.63;4972626;28;20097;-88
2022/06/29 01:26:13;;;;;;;2.10;2.00;;;;;;;15.46;80.81;101521.69;4956552;28;20031;-88
2022/06/29 01:28:44;;;;;;;2.10;2.00;;;;;;;15.43;82.02;101519.09;4988502;28;20484;-88
2022/06/29 01:31:19;;;;;;;2.20;2.10;;;;;;;15.42;81.12;101522.66;4988187;28;20034;-88
2022/06/29 01:33:46;;;;;;;2.58;2.08;;;;;;;15.43;81.20;101520.88;4988842;28;20388;-87
2022/06/29 01:36:12;;;;;;;2.60;2.50;;;;;;;15.39;81.86;101517.44;4956383;28;20373;-88
2022/06/29 01:38:38;;;;;;;1.83;1.73;;;;;;;15.36;81.62;101518.38;4956345;28;20026;-88
2022/06/29 01:41:08;;;;;;;2.03;1.92;;;;;;;15.34;81.14;101517.56;4956439;28;20108;-88
2022/06/29 01:43:38;;;;;;;2.40;2.28;;;;;;;15.33;80.89;101509.69;4972563;28;20113;-88
2022/06/29 01:46:04;;;;;;;2.20;2.10;;;;;;;15.31;81.30;101515.00;4988734;28;20109;-89
2022/06/29 01:48:29;;;;;;;2.22;2.10;;;;;;;15.28;81.19;101508.94;4972252;28;20106;-88
2022/06/29 01:50:55;;;;;;;2.10;2.00;;;;;;;15.25;81.21;101509.00;4956308;28;20049;-88
2022/06/29 01:53:20;;;;;;;2.55;2.40;;;;;;;15.22;81.54;101504.69;4956257;28;20109;-88
2022/06/29 01:55:46;;;;;;;2.38;2.28;;;;;;;15.20;81.53;101506.47;4972463;28;20031;-88
2022/06/29 01:58:12;;;;;;;3.17;2.47;;;;;;;15.18;81.31;101508.28;4972137;28;20030;-88
2022/06/29 02:00:38;;;;;;;2.42;2.33;;;;;;;15.15;81.35;101496.06;4988682;28;20027;-88
2022/06/29 02:03:03;;;;;;;2.55;2.35;;;;;;;15.14;81.38;101493.47;4956207;28;20027;-88
2022/06/29 02:05:29;;;;;;;2.22;2.13;;;;;;;15.12;81.31;101495.25;5004595;28;20034;-89
2022/06/29 02:07:54;;;;;;;2.45;2.35;;;;;;;15.10;82.23;101486.53;4988003;28;20488;-88
2022/06/29 02:10:20;;;;;;;2.20;2.10;;;;;;;15.08;82.13;101491.84;4988252;28;20029;-89
2022/06/29 02:12:45;;;;;;;2.63;2.38;;;;;;;15.08;82.03;101490.94;4956055;28;20029;-89
2022/06/29 02:15:11;;;;;;;2.03;1.90;;;;;;;15.06;82.04;101488.34;4972190;28;20484;-89
2022/06/29 02:17:36;;;;;;;2.47;2.38;;;;;;;15.06;82.08;101479.59;4955724;28;20034;-88
2022/06/29 02:20:03;;;;;;;2.42;2.22;;;;;;;15.03;81.57;101484.03;4988161;28;20031;-88
2022/06/29 02:22:28;;;;;;;2.22;2.13;;;;;;;15.03;81.43;101481.41;4955941;28;20492;-88
2022/06/29 02:24:53;;;;;;;2.00;1.90;;;;;;;15.01;82.27;101480.59;4972367;28;20027;-88
2022/06/29 02:27:19;;;;;;;2.22;2.13;;;;;;;15.01;82.21;101480.59;4988083;28;20490;-89
2022/06/29 02:29:45;;;;;;;2.70;2.42;;;;;;;15.00;82.06;101473.56;4971939;28;20400;-89
2022/06/29 02:34:54;;;;;;;1.95;1.85;;;;;;;14.97;82.03;101471.03;4986050;28;20042;-90
2022/06/29 02:37:19;;;;;;;2.08;1.98;;;;;;;14.97;82.13;101463.13;4971783;28;20023;-89
2022/06/29 02:39:45;;;;;;;2.20;2.08;;;;;;;14.96;82.66;101465.81;4955892;28;20030;-89
2022/06/29 02:42:11;;;;;;;2.67;2.50;;;;;;;14.95;81.97;101464.91;4955957;28;20069;-89
2022/06/29 02:44:38;;;;;;;2.92;2.42;;;;;;;14.94;81.93;101467.59;4988354;28;20462;-89
2022/06/29 02:47:05;;;;;;;2.08;1.98;;;;;;;14.92;81.76;101470.25;4955755;28;20018;-88
2022/06/29 02:49:39;;;;;;;2.63;2.42;;;;;;;14.90;81.20;101464.16;4971783;28;20058;-88
2022/06/29 02:52:05;;;;;;;2.33;2.17;;;;;;;14.88;80.97;101463.34;4954759;28;20028;-88
2022/06/29 02:54:30;;;;;;;2.38;2.28;;;;;;;14.86;81.17;101465.13;4971744;28;20549;-88
2022/06/29 02:56:55;;;;;;;2.38;2.28;;;;;;;14.85;81.77;101463.41;4987926;28;20511;-88
2022/06/29 02:59:22;;;;;;;2.30;2.20;;;;;;;14.84;81.85;101459.03;4972013;28;20473;-88
2022/06/29 03:01:47;;;;;;;2.15;2.05;;;;;;;14.83;82.05;101470.44;4955815;28;20027;-89
2022/06/29 03:04:13;;;;;;;2.63;2.38;;;;;;;14.82;82.58;101455.56;4971681;28;20033;-88
2022/06/29 03:06:38;;;;;;;3.60;2.30;;;;;;;14.80;82.79;101452.13;4971308;28;20015;-88
2022/06/29 03:09:04;;;;;;;2.42;2.28;;;;;;;14.80;82.92;101454.75;4971587;28;20461;-88
2022/06/29 03:11:29;;;;;;;2.38;2.28;;;;;;;14.77;82.65;101450.41;4971683;28;20022;-88
2022/06/29 03:13:54;;;;;;;2.50;2.30;;;;;;;14.78;82.19;101451.25;4955525;28;20555;-88
2022/06/29 03:16:20;;;;;;;2.70;2.50;;;;;;;14.77;82.05;101452.19;4971976;28;20035;-88
2022/06/29 03:18:45;;;;;;;2.53;2.40;;;;;;;14.76;82.54;101442.56;4975148;28;20118;-88
2022/06/29 03:21:11;;;;;;;2.50;2.30;;;;;;;14.77;82.35;101446.94;4990821;28;20037;-88
2022/06/29 03:23:37;;;;;;;2.78;2.58;;;;;;;14.76;82.60;101447.81;4975009;28;20396;-88
2022/06/29 03:26:02;;;;;;;2.53;2.40;;;;;;;14.77;82.57;101454.81;4958898;28;20027;-88
2022/06/29 03:28:28;;;;;;;2.30;2.20;;;;;;;14.76;82.26;101448.66;4958552;28;20026;-88
2022/06/29 03:30:53;;;;;;;2.50;2.40;;;;;;;14.78;82.23;101451.25;4974736;28;20077;-88
2022/06/29 03:33:18;;;;;;;2.30;2.20;;;;;;;14.78;82.39;101451.25;4974908;28;20022;-88
2022/06/29 03:35:44;;;;;;;2.17;2.08;;;;;;;14.79;82.15;101451.25;4958785;28;20023;-88
2022/06/29 03:38:09;;;;;;;2.17;2.08;;;;;;;14.79;82.28;101440.75;4958286;28;20089;-88
2022/06/29 03:40:35;;;;;;;2.58;2.38;;;;;;;14.83;82.43;101442.41;4974720;28;20039;-88
2022/06/29 03:43:00;;;;;;;2.40;2.30;;;;;;;14.83;82.86;101441.53;4974733;28;20033;-88
2022/06/29 03:45:25;;;;;;;2.40;2.30;;;;;;;14.84;83.12;101454.63;4990925;28;20031;-88
2022/06/29 03:47:51;;;;;;;2.80;2.60;;;;;;;14.87;83.20;101456.34;4974621;28;20022;-88
2022/06/29 03:50:16;;;;;;;2.00;1.90;;;;;;;14.87;83.15;101446.69;4958417;28;20497;-88
2022/06/29 03:52:42;;;;;;;2.35;2.25;;;;;;;14.90;82.83;101440.47;4974673;28;20384;-88
2022/06/29 03:55:08;;;;;;;2.35;2.20;;;;;;;14.93;82.99;101444.81;4974415;28;20515;-88
2022/06/29 03:57:33;;;;;;;2.20;2.10;;;;;;;14.94;83.04;101438.66;4974107;28;20023;-88
2022/06/29 03:59:59;;;;;;;2.42;2.33;;;;;;;14.95;83.66;101435.97;4974329;28;20493;-88
2022/06/29 04:02:25;;;;;;;2.30;2.20;;;;;;;14.97;83.46;101431.56;4974499;28;20027;-88
2022/06/29 04:04:51;;;;;;;2.20;2.10;;;;;;;14.99;83.93;101432.38;4958300;28;20093;-88
2022/06/29 04:07:16;;;;;;;2.30;2.20;;;;;;;15.00;83.93;101430.63;5006934;28;20026;-88
2022/06/29 04:09:41;;;;;;;1.90;1.80;;;;;;;15.01;84.11;101433.22;4990377;28;20025;-88
2022/06/29 04:12:07;;;;;;;2.00;1.90;;;;;;;15.04;84.40;101435.78;4974158;28;20045;-88
2022/06/29 04:14:33;;;;;;;1.90;1.80;;;;;;;15.07;84.42;101431.38;4974007;28;20030;-88
2022/06/29 04:16:58;;;;;;;2.20;2.10;;;;;;;15.08;84.52;101431.31;4973968;28;20026;-88
2022/06/29 04:19:24;;;;;;;4.57;2.10;;;;;;;15.12;83.80;101427.72;4990121;28;20373;-88
2022/06/29 04:21:50;;;;;;;1.95;1.85;;;;;;;15.14;84.05;101427.69;4973657;28;20034;-88
2022/06/29 04:24:16;;;;;;;2.10;2.00;;;;;;;15.16;84.55;101428.50;4973791;28;20028;-88
2022/06/29 04:26:42;;;;;;;2.33;2.15;;;;;;;15.18;84.56;101434.59;4957774;28;20026;-88
2022/06/29 04:29:08;;;;;;;1.90;1.80;;;;;;;15.21;84.79;101440.66;4990350;28;20026;-88
2022/06/29 04:31:33;;;;;;;1.80;1.70;;;;;;;15.23;84.01;101437.09;4957815;28;20038;-87
2022/06/29 04:34:00;;;;;;;2.00;1.90;;;;;;;15.25;83.80;101436.16;4957685;28;20485;-87
2022/06/29 04:36:25;;;;;;;1.63;1.58;;;;;;;15.26;84.25;101432.66;4989769;28;20496;-87
2022/06/29 04:38:51;;;;;;;1.95;1.85;;;;;;;15.28;84.08;101429.97;4957601;28;20034;-86
2022/06/29 04:41:16;;;;;;;2.10;2.00;;;;;;;15.30;84.11;101439.56;4973650;28;20058;-86
2022/06/29 04:43:42;;;;;;;2.10;2.00;;;;;;;15.30;84.53;101434.31;4973485;28;20089;-86
2022/06/29 04:46:19;;;;;;;2.25;2.05;;;;;;;15.34;83.97;101441.22;4973634;28;20485;-86
2022/06/29 04:48:46;;;;;;;2.25;2.05;;;;;;;15.37;84.30;101437.66;4958897;28;20476;-86
2022/06/29 04:51:11;;;;;;;2.15;1.95;;;;;;;15.38;83.96;101437.59;4973304;28;20037;-86
2022/06/29 04:53:37;;;;;;;2.05;1.95;;;;;;;15.42;84.42;101440.16;4989534;28;20027;-86
2022/06/29 04:56:03;;;;;;;1.98;1.88;;;;;;;15.43;84.27;101429.59;4989701;28;20115;-86
2022/06/29 04:58:28;;;;;;;1.85;1.75;;;;;;;15.46;83.93;101439.19;4973121;28;20038;-86
2022/06/29 05:00:53;;;;;;;2.15;2.05;;;;;;;15.49;84.24;101439.13;4973352;28;20126;-86
2022/06/29 05:03:19;;;;;;;1.85;1.60;;;;;;;15.52;83.54;101434.63;4973332;28;20377;-86
2022/06/29 05:05:47;;;;;;;2.35;1.92;;;;;;;15.54;84.20;101432.84;4957058;28;20026;-86
2022/06/29 05:08:13;;;;;;;2.28;2.10;;;;;;;15.56;82.85;101430.16;4973255;28;20105;-87
2022/06/29 05:10:38;;;;;;;2.00;1.90;;;;;;;15.59;83.17;101431.84;4973229;28;20100;-86
2022/06/29 05:13:03;;;;;;;2.15;2.03;;;;;;;15.61;82.87;101433.56;4957203;28;20074;-86
2022/06/29 05:15:29;;;;;;;2.40;1.90;;;;;;;15.64;82.18;101433.47;4973017;28;20034;-86
2022/06/29 05:17:54;;;;;;;2.03;1.92;;;;;;;15.65;80.69;101434.31;4988906;28;20019;-86
2022/06/29 05:20:21;;;;;;;1.73;1.63;;;;;;;15.68;80.95;101437.75;4972743;28;20568;-86
2022/06/29 05:22:47;;;;;;;1.80;1.70;;;;;;;15.68;81.29;101437.75;4955920;28;20030;-85
2022/06/29 05:25:12;;;;;;;1.70;1.60;;;;;;;15.70;80.88;101433.28;4956106;28;20073;-86
2022/06/29 05:27:38;;;;;;;3.13;2.10;;;;;;;15.72;80.77;101428.84;4956775;28;20504;-86
2022/06/29 05:30:04;;;;;;;2.45;1.70;;;;;;;15.75;81.03;101429.66;4956866;28;20049;-86
2022/06/29 05:32:30;;;;;;;1.60;1.50;;;;;;;15.79;80.51;101431.31;4956415;28;20030;-86
2022/06/29 05:34:55;;;;;;;1.58;1.55;;;;;;;15.82;80.38;101431.28;4956620;28;20109;-87
2022/06/29 05:37:21;;;;;;;1.90;1.65;;;;;;;15.86;80.52;101430.31;4972591;28;20022;-88
2022/06/29 05:39:46;;;;;;;1.73;1.63;;;;;;;15.89;79.65;101428.44;4956009;28;20034;-88
2022/06/29 05:42:14;;;;;;;1.45;1.45;;;;;;;15.92;80.59;101427.50;4956353;28;20027;-88
2022/06/29 05:44:40;;;;;;;1.65;1.55;;;;;;;15.95;79.90;101432.69;4972687;28;20096;-88
2022/06/29 05:47:07;;;;;;;1.80;1.70;;;;;;;15.99;79.99;101431.72;4956068;28;20481;-88
2022/06/29 05:49:33;;;;;;;3.65;1.77;;;;;;;16.04;80.82;101423.66;4956363;28;20499;-88
2022/06/29 05:51:58;;;;;;;2.00;1.80;;;;;;;16.08;79.85;101430.56;4956293;28;20034;-88
2022/06/29 05:54:24;;;;;;;1.63;1.52;;;;;;;16.13;79.73;101435.72;4956300;28;20034;-88
2022/06/29 05:56:49;;;;;;;1.60;1.50;;;;;;;16.16;80.89;101427.75;4956146;28;20022;-88
2022/06/29 05:59:15;;;;;;;2.58;1.60;;;;;;;16.20;81.48;101432.03;4956188;28;20031;-88
2022/06/29 06:01:40;;;;;;;1.38;1.25;;;;;;;16.23;81.33;101437.19;4956152;28;20030;-88
2022/06/29 06:04:06;;;;;;;1.90;1.73;;;;;;;16.26;80.18;101433.63;4956259;28;20106;-88
2022/06/29 06:06:32;;;;;;;1.65;1.55;;;;;;;16.28;79.19;101432.66;4956111;28;20125;-88
2022/06/29 06:08:57;;;;;;;1.90;1.80;;;;;;;16.28;77.62;101443.22;4956049;28;20027;-88
2022/06/29 06:11:22;;;;;;;2.05;1.73;;;;;;;16.30;77.66;101433.47;4956088;28;20084;-88
2022/06/29 06:13:48;;;;;;;1.80;1.70;;;;;;;16.31;77.35;101429.09;4972469;28;20573;-88
2022/06/29 06:16:13;;;;;;;1.77;1.67;;;;;;;16.31;76.26;101422.03;4972159;28;20023;-88
2022/06/29 06:18:39;;;;;;;1.70;1.60;;;;;;;16.33;77.50;101428.13;4955937;28;20073;-87
2022/06/29 06:21:04;;;;;;;1.60;1.50;;;;;;;16.37;78.71;101424.50;4956147;28;20511;-88
2022/06/29 06:23:30;;;;;;;1.65;1.55;;;;;;;16.39;78.50;101417.41;4972385;28;20177;-88
2022/06/29 06:25:55;;;;;;;1.73;1.63;;;;;;;16.43;78.96;101414.66;4956236;28;20030;-88
2022/06/29 06:28:21;;;;;;;1.92;1.80;;;;;;;16.46;79.54;101411.97;4955891;28;20026;-88
2022/06/29 06:30:46;;;;;;;3.10;1.85;;;;;;;16.49;79.58;101414.50;4955794;28;20113;-88
2022/06/29 06:33:11;;;;;;;1.98;1.88;;;;;;;16.52;80.42;101412.66;4955947;28;20034;-87
2022/06/29 06:35:37;;;;;;;2.20;2.00;;;;;;;16.56;80.54;101416.03;4972019;28;20105;-88
2022/06/29 06:38:03;;;;;;;1.70;1.60;;;;;;;16.58;80.09;101411.59;4955794;28;20026;-88
2022/06/29 06:43:12;;;;;;;1.98;1.88;;;;;;;16.63;80.04;101406.16;4972573;28;20503;-89
2022/06/29 06:45:38;;;;;;;2.20;2.03;;;;;;;16.63;79.07;101404.38;4955462;28;20027;-89
2022/06/29 06:48:04;;;;;;;1.90;1.80;;;;;;;16.66;79.85;101401.69;4955469;28;20031;-89
2022/06/29 06:50:29;;;;;;;1.88;1.77;;;;;;;16.69;80.18;101400.72;4955914;28;20034;-89
2022/06/29 06:52:55;;;;;;;2.95;1.88;;;;;;;16.71;80.84;101399.75;4975197;28;20027;-89
2022/06/29 06:55:20;;;;;;;1.92;1.77;;;;;;;16.76;80.16;101407.53;4959463;28;20500;-89
2022/06/29 06:57:45;;;;;;;1.85;1.75;;;;;;;16.81;80.87;101404.72;4975308;28;20029;-89
2022/06/29 07:00:11;;;;;;;2.00;1.90;;;;;;;16.85;81.12;101401.97;4959765;28;20030;-89
2022/06/29 07:02:37;;;;;;;2.30;2.15;;;;;;;16.89;81.23;101405.38;4959626;28;20022;-89
2022/06/29 07:05:03;;;;;;;2.65;1.90;;;;;;;16.93;80.15;101396.47;4959601;28;20033;-87
2022/06/29 07:07:28;;;;;;;2.50;2.30;;;;;;;16.96;79.86;101391.13;4959134;28;20491;-87
2022/06/29 07:09:54;;;;;;;3.03;2.30;;;;;;;17.02;77.55;101390.03;4959235;28;20026;-89
2022/06/29 07:12:19;;;;;;;3.90;2.30;;;;;;;17.04;78.90;101386.44;4959443;28;20038;-87
2022/06/29 07:14:44;;;;;;;2.35;2.13;;;;;;;17.10;79.57;101389.78;4959004;28;20034;-87
2022/06/29 07:17:10;;;;;;;2.28;2.17;;;;;;;17.13;78.63;101393.19;4958813;28;20437;-87
2022/06/29 07:19:35;;;;;;;2.33;2.13;;;;;;;17.23;77.61;101393.75;4959040;28;20038;-87
2022/06/29 07:22:01;;;;;;;2.17;2.08;;;;;;;17.26;78.49;101385.75;4959063;28;20396;-87
2022/06/29 07:24:26;;;;;;;3.72;2.28;;;;;;;17.35;76.89;101382.78;4958827;28;20476;-87
2022/06/29 07:26:51;;;;;;;2.15;1.95;;;;;;;17.40;78.60;101380.84;4959036;28;20025;-86
2022/06/29 07:29:17;;;;;;;2.38;2.17;;;;;;;17.46;78.48;101384.22;4958814;28;20029;-86
2022/06/29 07:31:43;;;;;;;2.40;2.30;;;;;;;17.54;78.16;101379.53;4943265;28;20058;-86
2022/06/29 07:34:09;;;;;;;3.28;2.10;;;;;;;17.61;78.77;101378.38;4975213;28;20362;-86
2022/06/29 07:36:34;;;;;;;2.65;1.92;;;;;;;17.68;79.40;101377.28;4958487;28;20037;-86
2022/06/29 07:38:59;;;;;;;2.42;2.05;;;;;;;17.78;78.48;101379.56;4958914;28;20077;-86
2022/06/29 07:41:25;;;;;;;2.50;2.20;;;;;;;17.86;77.60;101372.22;4975237;28;20027;-86
2022/06/29 07:43:50;;;;;;;2.00;1.90;;;;;;;17.92;77.64;101372.06;4958361;28;20042;-86
2022/06/29 07:46:16;;;;;;;2.20;2.10;;;;;;;17.98;77.47;101377.09;4958480;28;20118;-86
2022/06/29 07:48:41;;;;;;;5.18;2.45;;;;;;;18.05;76.28;101373.34;4958530;28;20061;-87
2022/06/29 07:51:07;;;;;;;1.90;1.80;;;;;;;18.11;75.99;101382.81;4958494;28;20542;-86
2022/06/29 07:53:32;;;;;;;2.13;2.03;;;;;;;18.18;76.39;101378.16;4958428;28;20026;-86
2022/06/29 07:55:57;;;;;;;1.85;1.75;;;;;;;18.23;77.07;101376.22;4974411;28;20032;-86
2022/06/29 07:58:23;;;;;;;2.17;1.80;;;;;;;18.29;76.68;101372.47;4974503;28;20030;-86
2022/06/29 08:00:49;;;;;;;2.08;1.90;;;;;;;18.34;78.06;101371.38;4958217;28;20022;-86
2022/06/29 08:03:14;;;;;;;2.10;1.88;;;;;;;18.40;77.09;101365.84;4973919;28;20031;-86
2022/06/29 08:05:40;;;;;;;1.90;1.80;;;;;;;18.47;77.12;101369.09;4958242;28;20425;-86
2022/06/29 08:08:06;;;;;;;3.00;1.85;;;;;;;18.53;77.59;101370.69;4958177;28;20021;-86
2022/06/29 08:10:31;;;;;;;2.13;1.95;;;;;;;18.57;76.67;101380.22;4957939;28;20038;-86
2022/06/29 08:12:57;;;;;;;2.00;1.90;;;;;;;18.63;76.53;101373.81;4957865;28;20078;-86
2022/06/29 08:15:23;;;;;;;2.30;2.10;;;;;;;18.67;77.24;101359.56;4958247;28;20035;-83
2022/06/29 08:17:49;;;;;;;2.40;1.90;;;;;;;18.70;76.51;101370.00;4957950;28;20489;-83
2022/06/29 08:20:15;;;;;;;2.03;1.92;;;;;;;18.72;76.72;101369.03;4957791;28;20027;-83
2022/06/29 08:22:41;;;;;;;2.00;1.90;;;;;;;18.75;76.88;101363.59;4957791;28;20033;-82
2022/06/29 08:25:07;;;;;;;2.63;2.03;;;;;;;18.80;77.23;101370.50;4957864;28;20121;-83
2022/06/29 08:27:33;;;;;;;4.82;1.90;;;;;;;18.83;77.27;101360.66;4957944;28;20109;-83
2022/06/29 08:29:58;;;;;;;2.65;2.20;;;;;;;18.85;76.81;101364.09;4957793;28;20027;-83
2022/06/29 08:32:24;;;;;;;2.60;2.40;;;;;;;18.86;76.13;101352.59;4957658;28;20030;-83
2022/06/29 08:34:49;;;;;;;2.28;2.00;;;;;;;18.88;77.26;101355.19;4957828;28;20027;-83
2022/06/29 08:37:15;;;;;;;3.92;2.20;;;;;;;18.89;77.66;101360.44;4957762;28;20023;-83
2022/06/29 08:39:40;;;;;;;2.50;2.30;;;;;;;18.90;77.75;101361.31;4957512;28;20030;-83
2022/06/29 08:42:06;;;;;;;2.78;2.25;;;;;;;18.92;76.42;101360.31;4957569;28;20396;-83
2022/06/29 08:44:38;;;;;;;4.45;2.10;;;;;;;18.96;77.26;101355.75;4957807;28;20354;-83
2022/06/29 08:47:04;;;;;;;2.20;2.10;;;;;;;19.01;75.79;101350.28;4957171;28;20027;-83
2022/06/29 08:49:31;;;;;;;4.20;2.33;;;;;;;19.05;76.20;101350.06;4957283;28;20026;-83
2022/06/29 08:51:57;;;;;;;2.05;1.92;;;;;;;19.09;76.77;101356.13;4957446;28;20062;-83
2022/06/29 08:54:24;;;;;;;2.10;2.00;;;;;;;19.14;76.17;101358.56;4956937;28;20034;-85
2022/06/29 08:56:50;;;;;;;2.88;2.28;;;;;;;19.17;75.61;101347.84;4957052;28;20396;-85
2022/06/29 08:59:16;;;;;;;2.33;2.13;;;;;;;19.21;74.79;101350.31;4973336;28;20030;-85
2022/06/29 09:01:41;;;;;;;1.95;1.85;;;;;;;19.26;74.85;101352.75;4973473;28;20031;-85
2022/06/29 09:04:07;;;;;;;2.40;2.22;;;;;;;19.32;74.93;101341.03;4973491;28;20026;-85
2022/06/29 09:06:33;;;;;;;2.33;2.03;;;;;;;19.36;75.49;101337.31;4957378;28;20113;-85
2022/06/29 09:08:58;;;;;;;2.08;1.98;;;;;;;19.41;76.35;101341.53;4957003;28;20117;-85
2022/06/29 09:11:28;;;;;;;2.80;2.10;;;;;;;19.45;74.73;101336.09;4957192;28;20117;-85
2022/06/29 09:14:18;;;;;;;1.90;1.80;;;;;;;19.55;75.10;101337.38;4956762;28;20027;-85
2022/06/29 09:17:00;;;;;;;4.05;2.08;;;;;;;19.65;72.80;101328.13;4973305;28;20022;-84
2022/06/29 09:19:36;;;;;;;2.17;2.08;;;;;;;19.79;73.07;101335.44;4956611;28;20066;-85
2022/06/29 09:22:02;;;;;;;2.20;2.10;;;;;;;19.88;73.18;101327.13;4973097;28;20374;-85
2022/06/29 09:24:30;;;;;;;2.65;2.15;;;;;;;19.92;69.92;101325.19;4973250;28;20033;-85
2022/06/29 09:26:57;;;;;;;2.20;2.10;;;;;;;19.97;71.71;101332.94;4956874;28;20504;-85
2022/06/29 09:29:27;;;;;;;3.55;2.00;;;;;;;19.99;69.89;101326.63;4956712;28;20528;-85
2022/06/29 09:32:08;;;;;;;2.10;2.00;;;;;;;20.02;69.79;101331.78;4956878;28;20456;-83
2022/06/29 09:34:40;;;;;;;2.10;2.00;;;;;;;20.07;69.46;101323.63;4973102;28;20054;-82
2022/06/29 09:37:08;;;;;;;1.92;1.83;;;;;;;20.12;69.56;101318.97;4955185;28;20030;-83
2022/06/29 09:39:39;;;;;;;2.55;1.67;;;;;;;20.19;69.33;101316.88;4971390;28;20536;-82
2022/06/29 09:42:06;;;;;;;1.80;1.70;;;;;;;20.26;69.74;101321.00;4956693;28;20019;-82
2022/06/29 09:44:32;;;;;;;2.63;1.92;;;;;;;20.27;69.21;101320.91;4956488;28;20112;-82
2022/06/29 09:46:57;;;;;;;1.90;1.80;;;;;;;20.30;68.75;101325.22;4956805;28;20113;-82
2022/06/29 09:49:25;;;;;;;1.80;1.70;;;;;;;20.33;68.38;101325.06;4956688;28;20057;-83
2022/06/29 09:51:58;;;;;;;1.95;1.85;;;;;;;20.39;69.62;101323.91;4956218;28;20030;-82
2022/06/29 09:54:26;;;;;;;2.03;1.92;;;;;;;20.46;68.77;101325.31;4988052;28;20065;-82
2022/06/29 09:56:54;;;;;;;2.78;1.85;;;;;;;20.56;69.66;101323.97;4972289;28;20034;-82
2022/06/29 10:02:51;;;;;;;2.38;1.80;;;;;;;20.76;68.41;101312.41;4972732;28;20033;-82
2022/06/29 10:05:18;;;;;;;2.00;1.90;;;;;;;20.86;66.94;101310.16;4986862;28;20093;-83
2022/06/29 10:07:49;;;;;;;2.05;1.90;;;;;;;20.93;67.96;101308.06;4971716;28;20085;-83
2022/06/29 10:10:16;;;;;;;2.30;1.73;;;;;;;21.01;67.19;101297.91;4971690;28;20308;-82
2022/06/29 10:15:44;;;;;;;1.77;1.67;;;;;;;21.21;65.52;101302.19;4974090;28;20041;-83
2022/06/29 10:18:34;;;;;;;1.80;1.70;;;;;;;21.28;66.12;101308.03;4972186;28;20026;-82
2022/06/29 10:21:00;;;;;;;1.67;1.58;;;;;;;21.28;65.96;101302.72;4989002;28;20038;-82
2022/06/29 10:23:52;;;;;;;1.55;1.45;;;;;;;21.25;62.08;101303.75;4972445;28;20096;-82
2022/06/29 10:26:35;;;;;;;1.50;1.40;;;;;;;21.25;64.61;101298.44;4959263;28;20041;-82
2022/06/29 10:29:19;;;;;;;8.98;2.20;;;;;;;21.33;63.26;101295.38;4986983;28;20019;-82
2022/06/29 10:31:54;;;;;;;2.25;1.80;;;;;;;21.46;63.50;101285.00;5018323;23;20042;-83
2022/06/29 10:34:31;;;;;;;;;;;;;;;21.54;63.73;101287.25;5015353;28;20398;-82
2022/06/29 10:37:05;;;;;;;1.50;1.40;;;;;;;21.59;62.91;101291.38;5014990;28;20456;-83
2022/06/29 10:39:45;;;;;;;1.95;1.85;;;;;;;21.63;62.00;101289.44;5027146;28;20025;-83
2022/06/29 10:45:08;;;;;;;1.98;1.60;;;;;;;21.90;63.71;101280.91;5036124;28;20441;-83
2022/06/29 10:47:34;;;;;;;2.45;1.58;;;;;;;22.06;62.49;101260.50;5034429;28;20021;-83
2022/06/29 10:50:19;;;;;;;1.48;1.38;;;;;;;22.21;59.93;101258.78;5018171;28;20124;-83
2022/06/29 10:52:45;;;;;;;1.90;1.80;;;;;;;22.36;58.41;101259.75;5034450;28;20056;-83
2022/06/29 10:55:11;;;;;;;1.73;1.63;;;;;;;22.51;61.92;101268.66;5017829;28;20022;-83
2022/06/29 10:57:38;;;;;;;4.45;1.83;;;;;;;22.60;57.26;101261.94;5017694;28;20029;-83
2022/06/29 11:00:08;;;;;;;1.27;1.27;;;;;;;22.71;57.85;101251.50;5017759;28;20021;-82
2022/06/29 11:02:34;;;;;;;1.70;1.60;;;;;;;22.81;58.37;101253.63;5018341;28;20076;-82
2022/06/29 11:04:59;;;;;;;1.80;1.70;;;;;;;22.84;58.71;101245.47;5017717;28;20100;-82
2022/06/29 11:12:55;;;;;;;2.03;1.50;;;;;;;22.96;56.86;101244.75;5034556;28;20048;-82
2022/06/29 11:15:39;;;;;;;1.60;1.58;;;;;;;23.04;60.26;101250.50;5017558;28;20045;-82
2022/06/29 11:18:15;;;;;;;3.72;1.50;;;;;;;23.13;56.98;101246.44;5018978;28;20022;-82
2022/06/29 11:20:42;;;;;;;1.35;1.27;;;;;;;23.20;53.71;101244.25;5034039;28;20029;-83
2022/06/29 11:23:12;;;;;;;1.52;1.42;;;;;;;23.26;54.38;101243.84;5017399;28;20112;-82
2022/06/29 11:25:48;;;;;;;1.40;1.30;;;;;;;23.28;54.66;101242.81;5017400;28;20036;-83
2022/06/29 11:28:17;;;;;;;1.75;1.48;;;;;;;23.32;54.40;101238.16;5017366;28;20443;-82
2022/06/29 11:30:57;;;;;;;1.85;1.60;;;;;;;23.34;55.95;101241.63;5033786;28;20021;-82
2022/06/29 11:33:27;;;;;;;1.58;1.45;;;;;;;23.33;53.67;101236.34;5015873;28;20029;-85
2022/06/29 11:35:52;;;;;;;1.50;1.40;;;;;;;23.31;55.78;101236.44;5017343;28;20024;-82
2022/06/29 11:38:17;;;;;;;1.42;1.40;;;;;;;23.27;54.01;101235.81;5016102;28;20065;-82
2022/06/29 11:40:43;;;;;;;1.35;1.35;;;;;;;23.17;53.27;101234.63;5017028;28;20083;-82
2022/06/29 11:43:11;;;;;;;1.45;1.35;;;;;;;23.07;57.01;101236.97;5017089;28;20037;-82